createdAt,value
2019-01-15T00:02:29.998Z,5.13
2019-01-15T00:05:01.400Z,4.20
2019-01-15T00:07:32.636Z,4.73
2019-01-15T00:10:04.895Z,5.93
2019-01-15T00:12:36.187Z,4.57
2019-01-15T00:15:08.345Z,4.87
2019-01-15T00:17:39.602Z,4.23
2019-01-15T00:20:10.923Z,5.10
2019-01-15T00:22:42.375Z,5.33
2019-01-15T00:25:13.634Z,4.00
2019-01-15T00:27:45.000Z,4.60
2019-01-15T00:30:17.630Z,3.97
2019-01-15T00:32:49.966Z,4.07
2019-01-15T00:35:22.436Z,4.17
2019-01-15T00:37:53.635Z,4.40
2019-01-15T00:40:25.007Z,4.20
2019-01-15T00:42:56.213Z,3.73
2019-01-15T00:45:27.489Z,4.30
2019-01-15T00:47:58.636Z,4.13
2019-01-15T00:50:29.786Z,3.67
2019-01-15T00:53:01.439Z,4.97
2019-01-15T00:55:32.565Z,3.37
2019-01-15T00:58:04.020Z,3.17
2019-01-15T01:00:35.393Z,3.60
2019-01-15T01:03:06.828Z,3.50
2019-01-15T01:05:38.015Z,3.23
2019-01-15T01:08:09.250Z,3.97
2019-01-15T01:10:40.493Z,3.40
2019-01-15T01:13:11.698Z,3.40
2019-01-15T01:15:43.985Z,3.40
2019-01-15T01:18:15.278Z,3.37
2019-01-15T01:20:46.455Z,3.13
2019-01-15T01:23:17.740Z,3.17
2019-01-15T01:25:48.939Z,3.40
2019-01-15T01:28:20.148Z,3.63
2019-01-15T01:30:51.327Z,3.10
2019-01-15T01:33:22.514Z,2.93
2019-01-15T01:35:53.856Z,3.10
2019-01-15T01:38:25.212Z,3.87
2019-01-15T01:40:57.551Z,4.10
2019-01-15T01:43:28.760Z,2.67
2019-01-15T01:45:59.881Z,2.70
2019-01-15T01:48:31.173Z,3.07
2019-01-15T01:51:02.444Z,2.77
2019-01-15T01:53:33.605Z,2.93
2019-01-15T01:56:04.907Z,3.37
2019-01-15T01:58:36.157Z,2.80
2019-01-15T02:01:07.542Z,2.67
2019-01-15T02:03:38.893Z,2.90
2019-01-15T02:06:10.165Z,3.03
2019-01-15T02:08:41.501Z,2.60
2019-01-15T02:11:12.592Z,2.50
2019-01-15T02:13:44.801Z,3.20
2019-01-15T02:16:16.178Z,2.97
2019-01-15T02:18:47.466Z,2.77
2019-01-15T02:21:18.850Z,2.30
2019-01-15T02:23:50.226Z,2.43
2019-01-15T02:26:21.630Z,2.93
2019-01-15T02:28:52.813Z,3.07
2019-01-15T02:31:24.084Z,3.17
2019-01-15T02:33:55.273Z,3.00
2019-01-15T02:36:26.571Z,3.90
2019-01-15T02:38:57.698Z,3.57
2019-01-15T02:41:29.081Z,3.37
2019-01-15T02:44:00.284Z,3.57
2019-01-15T02:46:31.396Z,3.23
2019-01-15T02:49:02.635Z,2.97
2019-01-15T02:51:33.807Z,3.47
2019-01-15T02:54:05.221Z,3.33
2019-01-15T02:56:36.365Z,2.93
2019-01-15T02:59:07.697Z,2.83
2019-01-15T03:01:39.062Z,3.40
2019-01-15T03:04:10.303Z,3.80
2019-01-15T03:06:42.646Z,3.37
2019-01-15T03:09:13.927Z,3.27
2019-01-15T03:11:45.247Z,2.70
2019-01-15T03:14:16.341Z,2.77
2019-01-15T03:16:47.495Z,2.83
2019-01-15T03:19:18.697Z,2.73
2019-01-15T03:21:49.900Z,3.33
2019-01-15T03:24:21.221Z,2.60
2019-01-15T03:26:52.486Z,3.43
2019-01-15T03:29:23.814Z,3.10
2019-01-15T03:31:55.023Z,2.73
2019-01-15T03:34:26.347Z,3.07
2019-01-15T03:36:57.557Z,3.33
2019-01-15T03:39:28.770Z,2.90
2019-01-15T03:42:00.083Z,2.87
2019-01-15T03:44:31.204Z,2.83
2019-01-15T03:47:02.436Z,2.67
2019-01-15T03:49:33.700Z,2.97
2019-01-15T03:52:05.173Z,2.67
2019-01-15T03:54:36.429Z,2.60
2019-01-15T03:57:07.527Z,2.77
2019-01-15T03:59:38.829Z,3.07
2019-01-15T04:02:10.884Z,2.87
2019-01-15T04:04:42.673Z,3.93
2019-01-15T04:07:14.098Z,3.03
2019-01-15T04:09:45.403Z,3.07
2019-01-15T04:12:16.677Z,2.70
2019-01-15T04:14:47.847Z,2.67
2019-01-15T04:17:19.115Z,2.77
2019-01-15T04:19:50.293Z,3.17
2019-01-15T04:22:21.432Z,3.63
2019-01-15T04:24:52.640Z,2.93
2019-01-15T04:27:23.947Z,2.83
2019-01-15T04:29:55.029Z,3.10
2019-01-15T04:32:26.172Z,3.57
2019-01-15T04:34:58.270Z,2.83
2019-01-15T04:37:29.526Z,3.17
2019-01-15T04:40:00.691Z,3.20
2019-01-15T04:42:31.938Z,2.93
2019-01-15T04:45:03.253Z,3.53
2019-01-15T04:47:34.418Z,3.27
2019-01-15T04:50:07.242Z,3.00
2019-01-15T04:52:39.779Z,3.43
2019-01-15T04:55:11.633Z,3.30
2019-01-15T04:57:43.070Z,5.47
2019-01-15T05:00:16.538Z,3.77
2019-01-15T05:02:47.987Z,3.37
2019-01-15T05:05:20.510Z,3.67
2019-01-15T05:07:51.775Z,4.17
2019-01-15T05:10:23.247Z,3.40
2019-01-15T05:12:54.452Z,3.60
2019-01-15T05:15:25.970Z,3.53
2019-01-15T05:17:56.933Z,3.70
2019-01-15T05:20:28.049Z,4.10
2019-01-15T05:22:59.200Z,3.40
2019-01-15T05:25:30.493Z,4.00
2019-01-15T05:28:01.739Z,3.97
2019-01-15T05:30:33.134Z,4.57
2019-01-15T05:33:04.462Z,3.90
2019-01-15T05:35:36.647Z,3.83
2019-01-15T05:38:07.962Z,3.63
2019-01-15T05:40:39.255Z,3.67
2019-01-15T05:43:10.326Z,4.17
2019-01-15T05:45:44.095Z,4.43
2019-01-15T05:48:28.622Z,3.60
2019-01-15T05:51:21.904Z,4.50
2019-01-15T05:53:52.893Z,3.87
2019-01-15T05:56:24.192Z,5.30
2019-01-15T05:58:55.411Z,4.23
2019-01-15T06:01:26.410Z,4.43
2019-01-15T06:03:57.629Z,4.80
2019-01-15T06:06:28.806Z,4.90
2019-01-15T06:09:00.079Z,4.60
2019-01-15T06:11:31.398Z,4.67
2019-01-15T06:14:02.402Z,5.30
2019-01-15T06:16:33.605Z,6.23
2019-01-15T06:19:04.820Z,5.03
2019-01-15T06:21:36.214Z,4.20
2019-01-15T06:24:07.462Z,5.00
2019-01-15T06:26:38.561Z,4.97
2019-01-15T06:29:10.147Z,5.13
2019-01-15T06:31:41.431Z,5.40
2019-01-15T06:34:13.128Z,4.70
2019-01-15T06:36:44.370Z,4.77
2019-01-15T06:39:15.540Z,5.23
2019-01-15T06:41:47.730Z,5.03
2019-01-15T06:44:19.076Z,5.73
2019-01-15T06:46:52.439Z,5.27
2019-01-15T06:49:23.454Z,4.87
2019-01-15T06:51:54.743Z,4.90
2019-01-15T06:54:25.935Z,5.20
2019-01-15T06:56:57.153Z,4.80
2019-01-15T06:59:28.402Z,5.53
2019-01-15T07:01:59.583Z,4.27
2019-01-15T07:04:30.675Z,4.60
2019-01-15T07:07:01.972Z,4.00
2019-01-15T07:09:33.296Z,5.40
2019-01-15T07:12:04.749Z,4.83
2019-01-15T07:14:35.756Z,5.40
2019-01-15T07:17:07.016Z,4.80
2019-01-15T07:19:38.289Z,4.53
2019-01-15T07:22:09.584Z,5.43
2019-01-15T07:24:40.883Z,5.43
2019-01-15T07:27:12.129Z,5.00
2019-01-15T07:29:43.546Z,5.03
2019-01-15T07:32:14.791Z,5.47
2019-01-15T07:34:45.821Z,4.80
2019-01-15T07:37:17.125Z,4.87
2019-01-15T07:39:48.281Z,5.40
2019-01-15T07:42:19.586Z,4.43
2019-01-15T07:44:50.611Z,4.40
2019-01-15T07:47:21.962Z,4.40
2019-01-15T07:49:53.237Z,3.97
2019-01-15T07:52:24.427Z,3.97
2019-01-15T07:54:55.507Z,4.80
2019-01-15T07:57:26.839Z,3.93
2019-01-15T07:59:57.973Z,4.63
2019-01-15T08:02:29.142Z,4.70
2019-01-15T08:05:00.305Z,6.03
2019-01-15T08:07:31.494Z,4.70
2019-01-15T08:10:02.819Z,4.00
2019-01-15T08:12:34.075Z,3.67
2019-01-15T08:15:06.440Z,3.60
2019-01-15T08:17:37.940Z,3.90
2019-01-15T08:20:09.984Z,3.97
2019-01-15T08:22:43.242Z,3.83
2019-01-15T08:25:14.788Z,4.07
2019-01-15T08:27:46.058Z,4.40
2019-01-15T08:30:28.742Z,3.50
2019-01-15T08:32:59.886Z,4.40
2019-01-15T08:35:31.607Z,3.90
2019-01-15T08:38:02.891Z,3.57
2019-01-15T08:40:33.997Z,3.80
2019-01-15T08:43:05.601Z,3.40
2019-01-15T08:45:36.768Z,3.43
2019-01-15T08:48:22.097Z,4.03
2019-01-15T08:50:54.062Z,4.20
2019-01-15T08:53:25.873Z,4.20
2019-01-15T08:55:58.375Z,4.23
2019-01-15T08:58:29.564Z,4.07
2019-01-15T09:01:00.803Z,3.80
2019-01-15T09:03:31.996Z,4.23
2019-01-15T09:06:03.339Z,3.97
2019-01-15T09:08:34.823Z,4.10
2019-01-15T09:11:06.420Z,4.47
2019-01-15T09:13:37.846Z,4.30
2019-01-15T09:16:09.100Z,4.07
2019-01-15T09:18:40.463Z,5.23
2019-01-15T09:21:11.729Z,4.10
2019-01-15T09:23:42.975Z,4.70
2019-01-15T09:26:15.420Z,3.07
2019-01-15T09:28:46.780Z,4.07
2019-01-15T09:31:18.053Z,4.50
2019-01-15T09:33:49.408Z,5.20
2019-01-15T09:36:20.528Z,4.00
2019-01-15T09:38:51.804Z,3.73
2019-01-15T09:41:22.956Z,3.40
2019-01-15T09:43:54.055Z,4.70
2019-01-15T09:46:25.486Z,4.83
2019-01-15T09:48:56.551Z,4.00
2019-01-15T09:51:27.753Z,4.23
2019-01-15T09:53:59.120Z,4.53
2019-01-15T09:56:30.284Z,4.47
2019-01-15T09:59:01.636Z,5.10
2019-01-15T10:01:32.736Z,3.50
2019-01-15T10:04:04.005Z,4.83
2019-01-15T10:06:36.308Z,3.70
2019-01-15T10:09:09.893Z,4.10
2019-01-15T10:11:41.023Z,5.77
2019-01-15T10:14:12.211Z,3.70
2019-01-15T10:16:43.339Z,4.37
2019-01-15T10:19:14.585Z,4.90
2019-01-15T10:21:46.842Z,4.43
2019-01-15T10:24:18.029Z,2.77
2019-01-15T10:26:49.222Z,3.07
2019-01-15T10:29:22.229Z,5.13
2019-01-15T10:32:37.488Z,4.00
2019-01-15T10:35:22.408Z,3.73
2019-01-15T10:37:53.608Z,3.77
2019-01-15T10:40:26.053Z,4.00
2019-01-15T10:42:57.225Z,3.77
2019-01-15T10:45:28.579Z,4.43
2019-01-15T10:47:59.832Z,3.63
2019-01-15T10:50:30.970Z,4.77
2019-01-15T10:53:02.106Z,4.33
2019-01-15T10:55:33.465Z,4.90
2019-01-15T10:58:04.838Z,2.70
2019-01-15T11:00:36.250Z,2.83
2019-01-15T11:03:07.407Z,2.83
2019-01-15T11:05:38.710Z,4.53
2019-01-15T11:08:10.032Z,3.07
2019-01-15T11:10:41.348Z,3.67
2019-01-15T11:13:12.664Z,4.10
2019-01-15T11:15:43.775Z,3.77
2019-01-15T11:18:16.105Z,2.83
2019-01-15T11:20:47.354Z,3.20
2019-01-15T11:23:18.590Z,3.83
2019-01-15T11:25:51.360Z,3.60
2019-01-15T11:28:22.684Z,4.20
2019-01-15T11:30:54.023Z,3.70
2019-01-15T11:33:25.424Z,5.70
2019-01-15T11:35:56.782Z,3.10
2019-01-15T11:38:28.118Z,3.40
2019-01-15T11:40:59.447Z,3.70
2019-01-15T11:43:30.634Z,4.00
2019-01-15T11:46:01.966Z,4.30
2019-01-15T11:48:33.166Z,3.87
2019-01-15T11:51:04.446Z,3.50
2019-01-15T11:53:35.617Z,3.63
2019-01-15T11:56:07.017Z,4.23
2019-01-15T11:58:39.239Z,3.60
2019-01-15T12:01:19.337Z,3.20
2019-01-15T12:04:08.306Z,4.90
2019-01-15T12:07:07.712Z,4.13
2019-01-15T12:09:56.743Z,4.37
2019-01-15T12:13:05.329Z,4.27
2019-01-15T12:15:55.319Z,4.13
2019-01-15T12:18:37.805Z,4.40
2019-01-15T12:21:42.964Z,3.77
2019-01-15T12:24:31.595Z,3.60
2019-01-15T12:27:12.166Z,4.77
2019-01-15T12:30:05.326Z,5.77
2019-01-15T12:32:56.396Z,4.53
2019-01-15T12:35:41.956Z,5.27
2019-01-15T12:38:30.598Z,5.07
2019-01-15T12:41:19.503Z,4.90
2019-01-15T12:44:21.578Z,4.27
2019-01-15T12:47:06.319Z,5.87
2019-01-15T12:49:55.143Z,4.93
2019-01-15T12:52:44.026Z,4.63
2019-01-15T12:55:47.449Z,4.47
2019-01-15T12:58:36.082Z,5.40
2019-01-15T13:01:36.026Z,5.13
2019-01-15T13:04:26.280Z,5.17
2019-01-15T13:07:16.551Z,5.30
2019-01-15T13:10:22.933Z,6.63
2019-01-15T13:13:13.043Z,5.03
2019-01-15T13:16:03.005Z,5.27
2019-01-15T13:18:53.079Z,5.90
2019-01-15T13:21:47.756Z,4.93
2019-01-15T13:24:35.217Z,5.03
2019-01-15T13:27:18.667Z,4.53
2019-01-15T13:30:08.831Z,4.87
2019-01-15T13:33:13.006Z,4.67
2019-01-15T13:36:04.590Z,5.27
2019-01-15T13:38:57.883Z,5.23
2019-01-15T13:41:45.435Z,6.13
2019-01-15T13:44:34.335Z,6.30
2019-01-15T13:47:36.452Z,6.30
2019-01-15T13:50:36.827Z,5.90
2019-01-15T13:53:36.051Z,4.73
2019-01-15T13:56:26.241Z,6.10
2019-01-15T13:59:11.610Z,5.47
2019-01-15T14:02:10.645Z,6.10
2019-01-15T14:05:03.760Z,5.40
2019-01-15T14:08:03.117Z,5.40
2019-01-15T14:10:59.410Z,4.93
2019-01-15T14:13:48.115Z,6.67
2019-01-15T14:16:50.511Z,5.90
2019-01-15T14:19:40.696Z,6.53
2019-01-15T14:22:29.911Z,6.37
2019-01-15T14:25:26.243Z,5.70
2019-01-15T14:28:22.267Z,5.60
2019-01-15T14:31:11.171Z,6.00
2019-01-15T14:34:07.898Z,5.63
2019-01-15T14:36:53.768Z,4.97
2019-01-15T14:39:44.407Z,5.20
2019-01-15T14:42:23.227Z,4.90
2019-01-15T14:45:16.024Z,4.77
2019-01-15T14:48:16.832Z,5.80
2019-01-15T14:51:22.136Z,4.90
2019-01-15T14:54:21.209Z,5.37
2019-01-15T14:57:14.634Z,5.17
2019-01-15T15:00:07.445Z,4.93
2019-01-15T15:02:57.985Z,6.10
2019-01-15T15:05:50.912Z,5.17
2019-01-15T15:08:40.001Z,4.80
2019-01-15T15:11:33.241Z,6.00
2019-01-15T15:14:23.599Z,5.23
2019-01-15T15:17:18.783Z,5.17
2019-01-15T15:20:09.122Z,5.93
2019-01-15T15:23:05.128Z,4.77
2019-01-15T15:26:04.386Z,5.30
2019-01-15T15:28:53.521Z,5.53
2019-01-15T15:32:01.931Z,4.80
2019-01-15T15:34:44.218Z,5.70
2019-01-15T15:37:28.277Z,5.90
2019-01-15T15:40:16.815Z,4.87
2019-01-15T15:43:05.480Z,4.97
2019-01-15T15:45:58.408Z,4.97
2019-01-15T15:48:57.551Z,5.13
2019-01-15T15:51:47.472Z,5.23
2019-01-15T15:54:47.621Z,4.63
2019-01-15T15:57:40.876Z,4.77
2019-01-15T16:00:32.127Z,4.60
2019-01-15T16:03:25.120Z,4.77
2019-01-15T16:06:07.004Z,5.20
2019-01-15T16:08:49.545Z,6.27
2019-01-15T16:11:30.823Z,5.90
2019-01-15T16:14:18.064Z,5.03
2019-01-15T16:16:58.531Z,5.23
2019-01-15T16:19:48.546Z,5.50
2019-01-15T16:22:30.633Z,6.23
2019-01-15T16:25:36.212Z,5.83
2019-01-15T16:28:30.316Z,7.13
2019-01-15T16:31:29.726Z,6.20
2019-01-15T16:34:23.522Z,7.00
2019-01-15T16:37:16.559Z,6.93
2019-01-15T16:40:06.726Z,8.17
2019-01-15T16:42:48.638Z,7.10
2019-01-15T16:45:39.954Z,7.07
2019-01-15T16:48:32.948Z,6.73
2019-01-15T16:51:21.906Z,6.83
2019-01-15T16:54:24.446Z,6.73
2019-01-15T16:57:14.212Z,6.47
2019-01-15T17:00:22.667Z,6.20
2019-01-15T17:03:18.801Z,6.70
2019-01-15T17:06:14.818Z,5.93
2019-01-15T17:09:12.532Z,6.60
2019-01-15T17:11:56.443Z,6.33
2019-01-15T17:14:45.078Z,6.13
2019-01-15T17:17:34.650Z,6.00
2019-01-15T17:20:26.302Z,6.23
2019-01-15T17:23:13.828Z,7.30
2019-01-15T17:26:06.977Z,6.63
2019-01-15T17:29:00.267Z,5.93
2019-01-15T17:31:53.708Z,6.67
2019-01-15T17:34:46.660Z,6.30
2019-01-15T17:37:45.625Z,12.03
2019-01-15T17:40:30.144Z,7.47
2019-01-15T17:43:18.870Z,6.23
2019-01-15T17:46:08.065Z,7.67
2019-01-15T17:49:10.715Z,7.30
2019-01-15T17:52:06.876Z,7.63
2019-01-15T17:54:55.534Z,8.30
2019-01-15T17:57:58.149Z,7.77
2019-01-15T18:00:48.256Z,8.87
2019-01-15T18:03:29.820Z,8.03
2019-01-15T18:06:22.697Z,9.70
2019-01-15T18:09:13.697Z,8.83
2019-01-15T18:12:21.759Z,8.57
2019-01-15T18:15:11.902Z,8.83
2019-01-15T18:18:08.021Z,8.07
2019-01-15T18:20:57.837Z,7.80
2019-01-15T18:23:46.905Z,7.53
2019-01-15T18:26:41.455Z,8.63
2019-01-15T18:29:43.583Z,7.67
2019-01-15T18:32:33.743Z,7.97
2019-01-15T18:35:27.465Z,7.77
2019-01-15T18:38:16.190Z,7.10
2019-01-15T18:41:09.360Z,6.80
2019-01-15T18:44:05.341Z,7.87
2019-01-15T18:46:55.943Z,7.40
2019-01-15T18:50:01.786Z,7.07
2019-01-15T18:52:51.942Z,8.07
2019-01-15T18:55:42.144Z,9.23
2019-01-15T18:58:25.654Z,7.23
2019-01-15T19:01:14.466Z,8.40
2019-01-15T19:04:03.180Z,6.93
2019-01-15T19:07:08.330Z,7.90
2019-01-15T19:09:57.061Z,7.33
2019-01-15T19:12:56.165Z,7.00
2019-01-15T19:15:49.163Z,6.63
2019-01-15T19:18:39.269Z,7.67
2019-01-15T19:21:21.143Z,7.87
2019-01-15T19:24:29.503Z,7.53
2019-01-15T19:27:19.667Z,8.00
2019-01-15T19:30:13.889Z,6.83
2019-01-15T19:33:09.915Z,6.97
2019-01-15T19:36:03.998Z,6.50
2019-01-15T19:38:56.074Z,7.53
2019-01-15T19:41:45.108Z,7.63
2019-01-15T19:44:47.398Z,6.70
2019-01-15T19:47:36.632Z,7.27
2019-01-15T19:50:26.805Z,7.03
2019-01-15T19:53:12.311Z,7.57
2019-01-15T19:56:11.546Z,6.87
2019-01-15T19:59:01.809Z,7.30
2019-01-15T20:01:55.048Z,8.55
2019-01-15T20:04:45.163Z,7.47
2019-01-15T20:07:53.584Z,7.77
2019-01-15T20:10:37.781Z,9.57
2019-01-15T20:13:26.263Z,8.20
2019-01-15T20:16:22.436Z,7.83
2019-01-15T20:19:11.039Z,6.93
2019-01-15T20:21:59.945Z,6.83
2019-01-15T20:24:52.934Z,7.20
2019-01-15T20:27:43.372Z,6.90
2019-01-15T20:30:42.252Z,7.60
2019-01-15T20:33:32.396Z,7.40
2019-01-15T20:36:22.589Z,6.53
2019-01-15T20:39:30.976Z,8.03
2019-01-15T20:42:19.931Z,6.60
2019-01-15T20:45:12.612Z,7.00
2019-01-15T20:48:01.538Z,7.03
2019-01-15T20:51:03.632Z,6.13
2019-01-15T20:53:51.198Z,6.60
2019-01-15T20:56:39.774Z,6.77
2019-01-15T20:59:32.655Z,7.10
2019-01-15T21:02:25.496Z,7.67
2019-01-15T21:05:24.743Z,6.87
2019-01-15T21:08:23.709Z,6.83
2019-01-15T21:11:12.481Z,6.97
2019-01-15T21:14:11.358Z,6.90
2019-01-15T21:17:00.239Z,15.37
2019-01-15T21:19:49.152Z,7.50
2019-01-15T21:22:39.342Z,5.67
2019-01-15T21:25:19.594Z,6.50
2019-01-15T21:28:10.835Z,6.20
2019-01-15T21:30:55.362Z,6.70
2019-01-15T21:33:51.440Z,7.30
2019-01-15T21:36:41.522Z,5.43
2019-01-15T21:39:49.843Z,5.80
2019-01-15T21:42:38.403Z,6.43
2019-01-15T21:45:31.467Z,6.20
2019-01-15T21:48:36.736Z,6.33
2019-01-15T21:51:27.062Z,6.67
2019-01-15T21:54:13.578Z,5.83
2019-01-15T21:57:08.366Z,6.07
2019-01-15T22:00:05.559Z,5.50
2019-01-15T22:03:10.004Z,6.67
2019-01-15T22:06:12.580Z,5.50
2019-01-15T22:09:02.707Z,5.47
2019-01-15T22:12:06.022Z,5.10
2019-01-15T22:14:56.145Z,5.60
2019-01-15T22:17:47.576Z,5.20
2019-01-15T22:20:43.938Z,6.23
2019-01-15T22:23:28.533Z,5.77
2019-01-15T22:26:24.653Z,5.70
2019-01-15T22:29:32.959Z,5.27
2019-01-15T22:32:14.499Z,5.13
2019-01-15T22:35:13.727Z,5.67
2019-01-15T22:38:03.792Z,5.00
2019-01-15T22:40:59.945Z,5.33
2019-01-15T22:43:50.021Z,5.37
2019-01-15T22:46:45.164Z,5.43
2019-01-15T22:49:47.406Z,5.13
2019-01-15T22:52:45.022Z,5.30
2019-01-15T22:55:33.290Z,5.63
2019-01-15T22:58:23.542Z,5.30
2019-01-15T23:01:29.757Z,5.17
2019-01-15T23:04:18.138Z,5.17
2019-01-15T23:07:14.337Z,5.23
2019-01-15T23:10:13.427Z,4.70
2019-01-15T23:13:13.445Z,5.80
2019-01-15T23:16:06.740Z,5.00
2019-01-15T23:19:15.039Z,5.10
2019-01-15T23:21:58.602Z,4.93
2019-01-15T23:24:47.046Z,5.17
2019-01-15T23:27:37.262Z,4.77
2019-01-15T23:30:30.316Z,4.97
2019-01-15T23:33:28.061Z,5.20
2019-01-15T23:36:27.095Z,4.67
2019-01-15T23:39:36.707Z,4.53
2019-01-15T23:42:32.618Z,4.70
2019-01-15T23:45:37.853Z,5.13
2019-01-15T23:48:27.893Z,5.07
2019-01-15T23:51:18.965Z,5.03
2019-01-15T23:54:08.889Z,5.33
2019-01-15T23:57:00.583Z,5.07
2019-01-15T23:59:51.615Z,5.13
